createdAt,value
2023-01-21T00:02:24.728Z,19.49
2023-01-21T00:04:51.607Z,19.46
2023-01-21T00:07:18.064Z,19.43
2023-01-21T00:09:44.580Z,19.42
2023-01-21T00:12:11.082Z,19.37
2023-01-21T00:14:37.620Z,19.36
2023-01-21T00:17:04.113Z,19.33
2023-01-21T00:19:30.646Z,19.31
2023-01-21T00:21:57.194Z,19.29
2023-01-21T00:24:24.823Z,19.28
2023-01-21T00:26:52.648Z,19.25
2023-01-21T00:29:19.291Z,19.25
2023-01-21T00:31:45.919Z,19.22
2023-01-21T00:34:12.468Z,19.19
2023-01-21T00:36:38.981Z,19.16
2023-01-21T00:39:06.225Z,19.14
2023-01-21T00:41:32.732Z,19.11
2023-01-21T00:43:59.252Z,19.08
2023-01-21T00:46:27.832Z,19.07
2023-01-21T00:48:56.053Z,19.06
2023-01-21T00:51:23.568Z,19.02
2023-01-21T00:53:50.137Z,19.02
2023-01-21T00:56:16.628Z,18.99
2023-01-21T00:58:46.049Z,18.98
2023-01-21T01:01:21.112Z,18.94
2023-01-21T01:03:49.304Z,18.93
2023-01-21T01:06:21.180Z,18.91
2023-01-21T01:08:49.511Z,18.88
2023-01-21T01:11:17.631Z,18.86
2023-01-21T01:13:44.856Z,18.85
2023-01-21T01:16:13.635Z,18.83
2023-01-21T01:18:40.504Z,18.81
2023-01-21T01:21:11.741Z,18.80
2023-01-21T01:23:38.531Z,18.79
2023-01-21T01:26:07.278Z,18.76
2023-01-21T01:28:34.166Z,18.75
2023-01-21T01:31:01.314Z,18.73
2023-01-21T01:33:28.231Z,18.71
2023-01-21T01:35:54.854Z,18.69
2023-01-21T01:38:22.663Z,18.66
2023-01-21T01:40:50.643Z,18.65
2023-01-21T01:43:20.882Z,18.63
2023-01-21T01:45:48.441Z,18.62
2023-01-21T01:48:35.348Z,18.60
2023-01-21T01:51:04.771Z,18.60
2023-01-21T01:53:32.376Z,18.56
2023-01-21T01:56:00.196Z,18.55
2023-01-21T01:58:27.599Z,18.53
2023-01-21T02:00:54.143Z,18.52
2023-01-21T02:03:39.607Z,18.51
2023-01-21T02:06:06.366Z,18.49
2023-01-21T02:08:34.388Z,18.48
2023-01-21T02:11:02.606Z,18.46
2023-01-21T02:13:31.220Z,18.44
2023-01-21T02:16:21.688Z,18.43
2023-01-21T02:18:48.180Z,18.43
2023-01-21T02:21:38.704Z,18.41
2023-01-21T02:24:53.337Z,18.37
2023-01-21T02:27:34.739Z,18.37
2023-01-21T02:30:22.952Z,18.33
2023-01-21T02:33:04.743Z,18.32
2023-01-21T02:35:50.969Z,18.29
2023-01-21T02:38:32.215Z,18.29
2023-01-21T02:41:03.863Z,18.27
2023-01-21T02:43:42.501Z,18.26
2023-01-21T02:46:31.686Z,18.23
2023-01-21T02:49:03.431Z,18.23
2023-01-21T02:51:29.926Z,18.22
2023-01-21T02:53:56.411Z,18.19
2023-01-21T02:56:25.781Z,18.19
2023-01-21T02:59:04.812Z,18.17
2023-01-21T03:01:37.115Z,18.17
2023-01-21T03:04:06.421Z,18.16
2023-01-21T03:06:46.107Z,18.14
2023-01-21T03:09:17.399Z,18.14
2023-01-21T03:11:48.880Z,18.11
2023-01-21T03:14:48.080Z,18.08
2023-01-21T03:17:25.940Z,18.07
2023-01-21T03:20:29.381Z,18.06
2023-01-21T03:23:02.124Z,18.03
2023-01-21T03:25:32.557Z,18.02
2023-01-21T03:28:01.629Z,18.01
2023-01-21T03:30:29.986Z,17.99
2023-01-21T03:32:58.657Z,17.99
2023-01-21T03:35:32.866Z,17.98
2023-01-21T03:38:11.195Z,17.98
2023-01-21T03:41:23.961Z,17.94
2023-01-21T03:43:51.697Z,17.93
2023-01-21T03:46:21.616Z,17.93
2023-01-21T03:48:52.087Z,17.91
2023-01-21T03:51:27.410Z,17.90
2023-01-21T03:53:58.876Z,17.90
2023-01-21T03:56:26.241Z,17.88
2023-01-21T03:58:53.145Z,17.85
2023-01-21T04:01:19.767Z,17.87
2023-01-21T04:03:46.405Z,17.85
2023-01-21T04:06:18.835Z,17.83
2023-01-21T04:08:45.636Z,17.83
2023-01-21T04:11:12.739Z,17.81
2023-01-21T04:13:39.356Z,17.81
2023-01-21T04:16:06.401Z,17.77
2023-01-21T04:18:33.256Z,17.77
2023-01-21T04:20:59.978Z,17.78
2023-01-21T04:23:26.593Z,17.76
2023-01-21T04:25:53.390Z,17.76
2023-01-21T04:28:20.306Z,17.74
2023-01-21T04:30:47.752Z,17.72
2023-01-21T04:33:14.851Z,17.72
2023-01-21T04:35:41.494Z,17.70
2023-01-21T04:38:07.970Z,17.69
2023-01-21T04:40:35.026Z,17.68
2023-01-21T04:43:01.588Z,17.68
2023-01-21T04:45:28.151Z,17.66
2023-01-21T04:47:54.694Z,17.66
2023-01-21T04:50:21.302Z,17.65
2023-01-21T04:52:47.879Z,17.63
2023-01-21T04:55:14.594Z,17.62
2023-01-21T04:57:41.120Z,17.60
2023-01-21T05:00:09.306Z,17.60
2023-01-21T05:02:36.081Z,17.59
2023-01-21T05:05:02.835Z,17.58
2023-01-21T05:07:29.406Z,17.57
2023-01-21T05:09:55.941Z,17.57
2023-01-21T05:12:22.457Z,17.55
2023-01-21T05:14:52.350Z,17.54
2023-01-21T05:17:18.836Z,17.54
2023-01-21T05:19:46.331Z,17.51
2023-01-21T05:22:12.804Z,17.51
2023-01-21T05:24:39.423Z,17.48
2023-01-21T05:27:05.895Z,17.49
2023-01-21T05:29:32.385Z,17.50
2023-01-21T05:31:59.016Z,17.47
2023-01-21T05:34:25.520Z,17.47
2023-01-21T05:36:52.049Z,17.45
2023-01-21T05:39:18.508Z,17.45
2023-01-21T05:41:45.086Z,17.44
2023-01-21T05:44:11.642Z,17.43
2023-01-21T05:46:38.106Z,17.42
2023-01-21T05:49:04.624Z,17.43
2023-01-21T05:51:31.252Z,17.40
2023-01-21T05:53:57.850Z,17.38
2023-01-21T05:56:24.521Z,17.38
2023-01-21T05:58:50.996Z,17.42
2023-01-21T06:01:17.525Z,17.43
2023-01-21T06:03:44.213Z,17.48
2023-01-21T06:06:10.696Z,17.55
2023-01-21T06:08:37.159Z,17.61
2023-01-21T06:11:03.801Z,17.71
2023-01-21T06:13:30.282Z,17.82
2023-01-21T06:15:57.284Z,17.93
2023-01-21T06:18:24.496Z,18.05
2023-01-21T06:20:51.079Z,18.15
2023-01-21T06:23:17.600Z,18.28
2023-01-21T06:25:44.289Z,18.39
2023-01-21T06:28:11.490Z,18.49
2023-01-21T06:30:38.310Z,18.60
2023-01-21T06:33:04.861Z,18.70
2023-01-21T06:35:32.165Z,18.79
2023-01-21T06:37:58.725Z,18.88
2023-01-21T06:40:25.791Z,18.96
2023-01-21T06:42:53.842Z,19.06
2023-01-21T06:45:20.423Z,19.13
2023-01-21T06:47:47.076Z,19.22
2023-01-21T06:50:16.894Z,19.27
2023-01-21T06:52:45.956Z,19.38
2023-01-21T06:55:13.418Z,19.44
2023-01-21T06:57:40.378Z,19.50
2023-01-21T07:00:08.697Z,19.56
2023-01-21T07:02:35.873Z,19.63
2023-01-21T07:05:03.235Z,19.70
2023-01-21T07:07:29.874Z,19.74
2023-01-21T07:09:56.421Z,19.79
2023-01-21T07:12:22.976Z,19.84
2023-01-21T07:14:49.559Z,19.87
2023-01-21T07:17:16.538Z,19.90
2023-01-21T07:19:43.057Z,19.95
2023-01-21T07:22:09.724Z,19.98
2023-01-21T07:24:36.208Z,20.01
2023-01-21T07:27:02.798Z,20.06
2023-01-21T07:29:29.570Z,20.09
2023-01-21T07:31:56.155Z,20.11
2023-01-21T07:34:22.633Z,20.13
2023-01-21T07:36:49.186Z,20.16
2023-01-21T07:39:15.660Z,20.17
2023-01-21T07:41:42.192Z,20.21
2023-01-21T07:44:09.559Z,20.22
2023-01-21T07:46:36.211Z,20.24
2023-01-21T07:49:02.772Z,20.25
2023-01-21T07:51:29.290Z,20.27
2023-01-21T07:53:56.799Z,20.28
2023-01-21T07:56:25.221Z,20.29
2023-01-21T07:58:51.783Z,20.31
2023-01-21T08:01:18.270Z,20.32
2023-01-21T08:03:44.831Z,20.34
2023-01-21T08:06:11.941Z,20.35
2023-01-21T08:08:38.427Z,20.36
2023-01-21T08:11:05.178Z,20.37
2023-01-21T08:13:31.661Z,20.38
2023-01-21T08:15:58.979Z,20.39
2023-01-21T08:18:25.606Z,20.40
2023-01-21T08:20:58.159Z,20.41
2023-01-21T08:23:26.126Z,20.43
2023-01-21T08:25:53.416Z,20.43
2023-01-21T08:28:19.976Z,20.44
2023-01-21T08:30:46.517Z,20.46
2023-01-21T08:33:13.554Z,20.47
2023-01-21T08:35:40.077Z,20.46
2023-01-21T08:38:06.641Z,20.48
2023-01-21T08:40:33.209Z,20.50
2023-01-21T08:43:01.440Z,20.51
2023-01-21T08:45:28.971Z,20.51
2023-01-21T08:47:55.928Z,20.53
2023-01-21T08:50:22.806Z,20.54
2023-01-21T08:52:55.949Z,20.55
2023-01-21T08:55:26.696Z,20.56
2023-01-21T08:57:58.434Z,20.56
2023-01-21T09:00:25.634Z,20.58
2023-01-21T09:02:52.214Z,20.59
2023-01-21T09:05:19.221Z,20.59
2023-01-21T09:07:46.163Z,20.60
2023-01-21T09:10:12.834Z,20.61
2023-01-21T09:12:42.372Z,20.61
2023-01-21T09:15:09.064Z,20.62
2023-01-21T09:17:35.575Z,20.65
2023-01-21T09:20:02.196Z,20.64
2023-01-21T09:22:28.755Z,20.63
2023-01-21T09:24:55.278Z,20.66
2023-01-21T09:27:27.193Z,20.67
2023-01-21T09:29:54.783Z,20.68
2023-01-21T09:32:21.257Z,20.67
2023-01-21T09:34:47.776Z,20.68
2023-01-21T09:37:14.196Z,20.69
2023-01-21T09:39:40.676Z,20.69
2023-01-21T09:42:17.817Z,20.69
2023-01-21T09:44:49.161Z,20.70
2023-01-21T09:47:30.648Z,20.69
2023-01-21T09:50:11.252Z,20.71
2023-01-21T09:52:41.574Z,20.70
2023-01-21T09:55:43.289Z,20.70
2023-01-21T09:58:31.674Z,20.72
2023-01-21T10:01:11.175Z,20.71
2023-01-21T10:04:04.222Z,20.71
2023-01-21T10:06:35.157Z,20.71
2023-01-21T10:09:20.215Z,20.71
2023-01-21T10:12:11.017Z,20.71
2023-01-21T10:14:53.555Z,20.71
2023-01-21T10:17:54.181Z,20.73
2023-01-21T10:20:44.882Z,20.73
2023-01-21T10:23:17.928Z,20.73
2023-01-21T10:25:48.940Z,20.74
2023-01-21T10:28:28.265Z,20.73
2023-01-21T10:31:04.695Z,20.74
2023-01-21T10:33:32.843Z,20.74
2023-01-21T10:36:02.356Z,20.74
2023-01-21T10:38:41.306Z,20.74
2023-01-21T10:41:26.419Z,20.72
2023-01-21T10:44:03.427Z,20.74
2023-01-21T10:46:59.173Z,20.73
2023-01-21T10:49:46.452Z,20.74
2023-01-21T10:52:21.900Z,20.73
2023-01-21T10:54:53.732Z,20.74
2023-01-21T10:57:33.948Z,20.73
2023-01-21T11:00:04.199Z,20.73
2023-01-21T11:02:33.776Z,20.74
2023-01-21T11:05:03.278Z,20.72
2023-01-21T11:07:37.787Z,20.73
2023-01-21T11:10:06.858Z,20.75
2023-01-21T11:12:33.547Z,20.74
2023-01-21T11:15:13.263Z,20.74
2023-01-21T11:17:41.760Z,20.76
2023-01-21T11:20:35.660Z,20.76
2023-01-21T11:23:04.966Z,20.75
2023-01-21T11:25:37.360Z,20.77
2023-01-21T11:28:05.077Z,20.78
2023-01-21T11:30:51.119Z,20.79
2023-01-21T11:33:27.785Z,20.80
2023-01-21T11:35:55.494Z,20.82
2023-01-21T11:38:36.097Z,20.82
2023-01-21T11:41:11.131Z,20.83
2023-01-21T11:43:44.338Z,20.84
2023-01-21T11:46:39.657Z,20.85
2023-01-21T11:49:09.070Z,20.87
2023-01-21T11:51:37.449Z,20.87
2023-01-21T11:54:06.887Z,20.87
2023-01-21T11:56:33.443Z,20.86
2023-01-21T11:58:59.968Z,20.86
2023-01-21T12:01:26.664Z,20.86
2023-01-21T12:03:57.168Z,20.85
2023-01-21T12:06:28.679Z,20.84
2023-01-21T12:09:00.216Z,20.84
2023-01-21T12:11:29.243Z,20.83
2023-01-21T12:14:17.379Z,20.84
2023-01-21T12:16:58.810Z,20.83
2023-01-21T12:19:53.088Z,20.81
2023-01-21T12:22:25.648Z,20.80
2023-01-21T12:24:54.924Z,20.80
2023-01-21T12:27:39.603Z,20.80
2023-01-21T12:30:27.120Z,20.79
2023-01-21T12:33:02.059Z,20.80
2023-01-21T12:36:13.615Z,20.77
2023-01-21T12:38:45.645Z,20.79
2023-01-21T12:41:20.940Z,20.78
2023-01-21T12:43:52.616Z,20.79
2023-01-21T12:46:21.581Z,20.79
2023-01-21T12:48:57.019Z,20.78
2023-01-21T12:51:29.481Z,20.78
2023-01-21T12:54:04.347Z,20.77
2023-01-21T12:56:54.016Z,20.78
2023-01-21T12:59:28.704Z,20.77
2023-01-21T13:02:05.700Z,20.77
2023-01-21T13:04:53.891Z,20.76
2023-01-21T13:07:58.057Z,20.75
2023-01-21T13:10:34.556Z,20.76
2023-01-21T13:13:27.735Z,20.75
2023-01-21T13:15:58.894Z,20.76
2023-01-21T13:18:36.064Z,20.77
2023-01-21T13:21:23.708Z,20.78
2023-01-21T13:23:59.650Z,20.78
2023-01-21T13:27:03.417Z,20.78
2023-01-21T13:29:48.413Z,20.79
2023-01-21T13:32:23.977Z,20.79
2023-01-21T13:35:23.047Z,20.78
2023-01-21T13:38:01.341Z,20.79
2023-01-21T13:40:27.750Z,20.79
2023-01-21T13:42:56.902Z,20.78
2023-01-21T13:45:53.185Z,20.79
2023-01-21T13:48:28.815Z,20.79
2023-01-21T13:51:30.951Z,20.78
2023-01-21T13:54:25.201Z,20.79
2023-01-21T13:56:54.766Z,20.79
2023-01-21T13:59:51.909Z,20.79
2023-01-21T14:02:37.082Z,20.77
2023-01-21T14:05:15.304Z,20.79
2023-01-21T14:08:06.024Z,20.78
2023-01-21T14:10:50.939Z,20.78
2023-01-21T14:13:35.598Z,20.79
2023-01-21T14:16:05.043Z,20.79
2023-01-21T14:19:02.901Z,20.79
2023-01-21T14:21:37.948Z,20.78
2023-01-21T14:24:34.417Z,20.80
2023-01-21T14:27:37.967Z,20.79
2023-01-21T14:30:07.436Z,20.79
2023-01-21T14:32:49.851Z,20.79
2023-01-21T14:35:23.652Z,20.78
2023-01-21T14:38:17.873Z,20.77
2023-01-21T14:40:49.749Z,20.78
2023-01-21T14:43:42.863Z,20.77
2023-01-21T14:46:35.478Z,20.78
2023-01-21T14:49:08.233Z,20.78
2023-01-21T14:51:44.325Z,20.80
2023-01-21T14:54:18.455Z,20.79
2023-01-21T14:56:59.816Z,20.79
2023-01-21T14:59:37.864Z,20.80
2023-01-21T15:02:22.374Z,20.80
2023-01-21T15:05:04.500Z,20.78
2023-01-21T15:07:37.773Z,20.74
2023-01-21T15:10:32.296Z,20.71
2023-01-21T15:13:02.689Z,20.69
2023-01-21T15:15:36.791Z,20.70
2023-01-21T15:18:09.444Z,20.68
2023-01-21T15:20:42.148Z,20.68
2023-01-21T15:23:31.560Z,20.69
2023-01-21T15:26:12.979Z,20.70
2023-01-21T15:28:44.234Z,20.70
2023-01-21T15:31:41.265Z,20.70
2023-01-21T15:34:15.270Z,20.73
2023-01-21T15:36:53.286Z,20.74
2023-01-21T15:39:31.477Z,20.75
2023-01-21T15:42:14.123Z,20.76
2023-01-21T15:45:05.200Z,20.77
2023-01-21T15:47:37.747Z,20.80
2023-01-21T15:50:22.356Z,20.79
2023-01-21T15:53:09.763Z,20.81
2023-01-21T15:55:51.386Z,20.82
2023-01-21T15:58:26.992Z,20.83
2023-01-21T16:01:07.367Z,20.82
2023-01-21T16:03:44.350Z,20.83
2023-01-21T16:06:26.163Z,20.84
2023-01-21T16:09:05.850Z,20.84
2023-01-21T16:11:51.117Z,20.84
2023-01-21T16:14:37.823Z,20.86
2023-01-21T16:17:11.647Z,20.85
2023-01-21T16:19:43.579Z,20.87
2023-01-21T16:22:13.645Z,20.86
2023-01-21T16:24:44.039Z,20.88
2023-01-21T16:27:36.775Z,20.89
2023-01-21T16:30:11.707Z,20.88
2023-01-21T16:32:38.517Z,20.89
2023-01-21T16:35:05.620Z,20.90
2023-01-21T16:37:33.001Z,20.90
2023-01-21T16:40:08.706Z,20.91
2023-01-21T16:42:37.901Z,20.90
2023-01-21T16:45:18.481Z,20.90
2023-01-21T16:47:52.653Z,20.92
2023-01-21T16:50:21.239Z,20.92
2023-01-21T16:52:47.956Z,20.93
2023-01-21T16:55:32.840Z,20.92
2023-01-21T16:57:59.550Z,20.93
2023-01-21T17:00:31.218Z,20.92
2023-01-21T17:02:59.840Z,20.92
2023-01-21T17:05:35.475Z,20.93
2023-01-21T17:08:09.022Z,20.93
2023-01-21T17:10:39.405Z,20.93
2023-01-21T17:13:13.780Z,20.93
2023-01-21T17:15:42.423Z,20.94
2023-01-21T17:18:18.839Z,20.93
2023-01-21T17:20:49.385Z,20.93
2023-01-21T17:23:22.523Z,20.91
2023-01-21T17:25:55.211Z,20.92
2023-01-21T17:28:44.210Z,20.91
2023-01-21T17:31:16.894Z,20.92
2023-01-21T17:33:43.861Z,20.92
2023-01-21T17:36:15.610Z,20.91
2023-01-21T17:38:44.996Z,20.91
2023-01-21T17:41:25.808Z,20.93
2023-01-21T17:43:55.647Z,20.92
2023-01-21T17:46:24.214Z,20.92
2023-01-21T17:48:54.447Z,20.91
2023-01-21T17:51:25.084Z,20.94
2023-01-21T17:54:03.709Z,20.94
2023-01-21T17:56:39.060Z,20.95
2023-01-21T17:59:28.599Z,20.95
2023-01-21T18:01:56.025Z,20.95
2023-01-21T18:04:23.280Z,20.95
2023-01-21T18:06:52.085Z,20.95
2023-01-21T18:09:20.950Z,20.95
2023-01-21T18:11:49.411Z,20.96
2023-01-21T18:14:21.603Z,20.96
2023-01-21T18:16:48.401Z,20.98
2023-01-21T18:19:28.984Z,20.97
2023-01-21T18:21:56.104Z,20.98
2023-01-21T18:24:22.929Z,20.98
2023-01-21T18:26:49.861Z,20.99
2023-01-21T18:29:18.186Z,20.98
2023-01-21T18:31:45.967Z,21.01
2023-01-21T18:34:12.480Z,21.00
2023-01-21T18:36:40.093Z,21.00
2023-01-21T18:39:19.901Z,21.00
2023-01-21T18:41:46.680Z,20.98
2023-01-21T18:44:13.609Z,20.99
2023-01-21T18:46:42.279Z,20.98
2023-01-21T18:49:15.074Z,20.99
2023-01-21T18:51:41.559Z,21.00
2023-01-21T18:54:08.220Z,20.99
2023-01-21T18:56:37.187Z,20.99
2023-01-21T18:59:10.909Z,20.99
2023-01-21T19:01:37.749Z,20.99
2023-01-21T19:04:04.414Z,21.00
2023-01-21T19:06:30.922Z,20.98
2023-01-21T19:08:58.082Z,20.98
2023-01-21T19:11:24.587Z,20.99
2023-01-21T19:13:51.418Z,20.99
2023-01-21T19:16:19.818Z,21.00
2023-01-21T19:18:46.397Z,20.98
2023-01-21T19:21:12.946Z,20.96
2023-01-21T19:23:40.365Z,20.97
2023-01-21T19:26:08.462Z,20.98
2023-01-21T19:28:35.376Z,20.97
2023-01-21T19:31:02.044Z,20.97
2023-01-21T19:33:28.598Z,20.98
2023-01-21T19:36:01.156Z,21.00
2023-01-21T19:38:28.024Z,21.00
2023-01-21T19:40:55.593Z,20.99
2023-01-21T19:43:23.021Z,21.00
2023-01-21T19:45:51.517Z,20.98
2023-01-21T19:48:20.650Z,21.00
2023-01-21T19:50:47.589Z,20.99
2023-01-21T19:53:15.962Z,20.99
2023-01-21T19:55:44.128Z,20.96
2023-01-21T19:58:21.062Z,21.00
2023-01-21T20:00:49.550Z,20.95
2023-01-21T20:03:18.551Z,20.98
2023-01-21T20:05:46.613Z,21.00
2023-01-21T20:08:18.341Z,20.98
2023-01-21T20:10:44.909Z,20.98
2023-01-21T20:13:12.935Z,20.98
2023-01-21T20:15:40.363Z,21.00
2023-01-21T20:18:10.918Z,21.00
2023-01-21T20:20:37.440Z,20.99
2023-01-21T20:23:03.940Z,20.97
2023-01-21T20:25:38.804Z,20.98
2023-01-21T20:28:18.279Z,20.98
2023-01-21T20:30:45.570Z,20.99
2023-01-21T20:33:15.283Z,20.99
2023-01-21T20:35:42.233Z,20.98
2023-01-21T20:38:14.155Z,20.97
2023-01-21T20:40:41.011Z,20.98
2023-01-21T20:43:07.928Z,20.97
2023-01-21T20:45:40.804Z,20.97
2023-01-21T20:48:07.515Z,20.97
2023-01-21T20:50:35.518Z,20.98
2023-01-21T20:53:03.344Z,20.98
2023-01-21T20:55:31.133Z,20.95
2023-01-21T20:57:57.791Z,20.97
2023-01-21T21:00:31.534Z,20.95
2023-01-21T21:02:58.110Z,20.96
2023-01-21T21:05:27.596Z,20.95
2023-01-21T21:07:54.669Z,20.96
2023-01-21T21:10:36.210Z,20.96
2023-01-21T21:13:03.962Z,20.97
2023-01-21T21:15:35.130Z,20.96
2023-01-21T21:18:05.139Z,20.97
2023-01-21T21:20:34.621Z,20.98
2023-01-21T21:23:01.596Z,20.98
2023-01-21T21:25:31.964Z,20.95
2023-01-21T21:27:58.686Z,20.98
2023-01-21T21:30:27.702Z,20.99
2023-01-21T21:32:56.349Z,20.99
2023-01-21T21:35:22.823Z,20.97
2023-01-21T21:37:50.068Z,20.98
2023-01-21T21:40:16.923Z,21.00
2023-01-21T21:43:02.166Z,20.99
2023-01-21T21:45:28.734Z,20.98
2023-01-21T21:48:14.109Z,20.99
2023-01-21T21:50:40.897Z,20.98
2023-01-21T21:53:08.311Z,21.00
2023-01-21T21:55:35.014Z,21.00
2023-01-21T21:58:01.570Z,21.00
2023-01-21T22:00:28.689Z,20.98
2023-01-21T22:03:02.531Z,20.98
2023-01-21T22:05:30.041Z,20.98
2023-01-21T22:07:56.536Z,21.00
2023-01-21T22:10:23.023Z,20.97
2023-01-21T22:12:49.608Z,20.98
2023-01-21T22:15:16.388Z,20.99
2023-01-21T22:17:43.028Z,20.98
2023-01-21T22:20:10.441Z,20.98
2023-01-21T22:22:37.025Z,20.98
2023-01-21T22:25:03.700Z,20.98
2023-01-21T22:27:30.175Z,20.96
2023-01-21T22:29:56.658Z,20.93
2023-01-21T22:32:23.143Z,20.90
2023-01-21T22:34:49.593Z,20.87
2023-01-21T22:37:16.146Z,20.82
2023-01-21T22:39:42.663Z,20.80
2023-01-21T22:42:10.215Z,20.74
2023-01-21T22:44:36.729Z,20.68
2023-01-21T22:47:03.295Z,20.63
2023-01-21T22:49:29.777Z,20.57
2023-01-21T22:51:56.563Z,20.51
2023-01-21T22:54:23.103Z,20.46
2023-01-21T22:56:52.613Z,20.42
2023-01-21T22:59:19.488Z,20.36
2023-01-21T23:01:46.291Z,20.28
2023-01-21T23:04:12.914Z,20.23
2023-01-21T23:06:39.423Z,20.19
2023-01-21T23:09:09.188Z,20.12
2023-01-21T23:11:37.956Z,20.06
2023-01-21T23:14:04.451Z,20.02
2023-01-21T23:16:30.937Z,19.98
2023-01-21T23:18:58.025Z,19.92
2023-01-21T23:21:24.752Z,19.86
2023-01-21T23:23:51.351Z,19.83
2023-01-21T23:26:23.831Z,19.75
2023-01-21T23:28:55.452Z,19.74
2023-01-21T23:31:22.658Z,19.70
2023-01-21T23:33:50.431Z,19.67
2023-01-21T23:36:19.229Z,19.61
2023-01-21T23:38:46.668Z,19.57
2023-01-21T23:41:17.127Z,19.53
2023-01-21T23:43:43.997Z,19.46
2023-01-21T23:46:16.841Z,19.43
2023-01-21T23:48:43.460Z,19.38
2023-01-21T23:51:12.944Z,19.34
2023-01-21T23:53:39.664Z,19.27
2023-01-21T23:56:24.465Z,19.23
2023-01-21T23:58:51.620Z,19.19
